createdAt,value
2019-05-02T00:01:32.238Z,23.27
2019-05-02T00:04:02.953Z,22.07
2019-05-02T00:06:37.900Z,21.30
2019-05-02T00:09:10.954Z,20.93
2019-05-02T00:11:40.932Z,21.57
2019-05-02T00:14:14.184Z,23.23
2019-05-02T00:16:49.081Z,20.17
2019-05-02T00:19:16.766Z,20.60
2019-05-02T00:21:47.141Z,23.23
2019-05-02T00:24:17.499Z,22.53
2019-05-02T00:26:47.901Z,21.33
2019-05-02T00:29:19.003Z,24.23
2019-05-02T00:31:50.369Z,22.53
2019-05-02T00:34:20.741Z,21.90
2019-05-02T00:36:51.175Z,22.63
2019-05-02T00:39:21.677Z,21.83
2019-05-02T00:41:52.107Z,21.23
2019-05-02T00:44:23.027Z,21.30
2019-05-02T00:46:55.306Z,22.33
2019-05-02T00:49:25.751Z,21.77
2019-05-02T00:51:56.580Z,22.17
2019-05-02T00:54:28.151Z,21.53
2019-05-02T00:56:58.573Z,21.70
2019-05-02T00:59:29.000Z,22.03
2019-05-02T01:02:07.787Z,22.20
2019-05-02T01:04:40.108Z,22.37
2019-05-02T01:07:11.079Z,23.70
2019-05-02T01:09:46.800Z,22.90
2019-05-02T01:12:26.276Z,21.50
2019-05-02T01:14:48.560Z,20.47
2019-05-02T01:17:19.114Z,20.97
2019-05-02T01:19:51.452Z,20.93
2019-05-02T01:22:21.518Z,19.37
2019-05-02T01:24:52.186Z,19.53
2019-05-02T01:27:42.593Z,19.43
2019-05-02T01:30:26.110Z,18.27
2019-05-02T01:33:13.643Z,18.57
2019-05-02T01:35:52.800Z,18.23
2019-05-02T01:38:31.678Z,18.80
2019-05-02T01:41:02.673Z,17.33
2019-05-02T01:43:35.907Z,19.20
2019-05-02T01:46:06.545Z,18.10
2019-05-02T01:48:40.057Z,18.57
2019-05-02T01:51:10.400Z,18.63
2019-05-02T01:53:41.278Z,17.83
2019-05-02T01:56:11.687Z,17.77
2019-05-02T01:58:42.036Z,18.67
2019-05-02T02:01:16.346Z,18.70
2019-05-02T02:03:45.614Z,16.90
2019-05-02T02:06:16.423Z,18.50
2019-05-02T02:08:46.802Z,16.87
2019-05-02T02:11:17.131Z,17.33
2019-05-02T02:13:50.171Z,16.63
2019-05-02T02:16:20.632Z,17.30
2019-05-02T02:19:04.076Z,17.07
2019-05-02T02:21:43.044Z,18.03
2019-05-02T02:24:25.430Z,18.00
2019-05-02T02:26:53.740Z,17.43
2019-05-02T02:29:24.109Z,18.47
2019-05-02T02:31:54.540Z,17.90
2019-05-02T02:34:29.286Z,17.70
2019-05-02T02:37:05.216Z,19.20
2019-05-02T02:39:31.672Z,18.80
2019-05-02T02:42:02.296Z,21.27
2019-05-02T02:44:51.065Z,21.03
2019-05-02T02:47:21.415Z,19.27
2019-05-02T02:49:56.003Z,19.53
2019-05-02T02:52:23.749Z,19.20
2019-05-02T02:54:54.200Z,19.03
2019-05-02T02:57:28.202Z,19.10
2019-05-02T03:00:06.704Z,18.20
2019-05-02T03:02:28.819Z,17.50
2019-05-02T03:04:59.728Z,17.90
2019-05-02T03:07:30.304Z,17.13
2019-05-02T03:10:06.289Z,16.90
2019-05-02T03:12:46.103Z,17.97
2019-05-02T03:15:21.126Z,18.93
2019-05-02T03:17:50.733Z,17.70
2019-05-02T03:20:21.211Z,17.87
2019-05-02T03:22:52.148Z,19.57
2019-05-02T03:25:27.047Z,17.87
2019-05-02T03:27:54.859Z,18.17
2019-05-02T03:30:32.827Z,18.87
2019-05-02T03:33:09.718Z,20.30
2019-05-02T03:35:42.928Z,17.83
2019-05-02T03:38:05.835Z,19.33
2019-05-02T03:40:39.612Z,17.93
2019-05-02T03:43:08.895Z,16.57
2019-05-02T03:45:43.028Z,18.70
2019-05-02T03:48:18.449Z,17.43
2019-05-02T03:50:44.217Z,16.87
2019-05-02T03:53:24.164Z,17.23
2019-05-02T03:55:46.614Z,17.87
2019-05-02T03:58:17.402Z,16.63
2019-05-02T04:00:48.172Z,18.43
2019-05-02T04:03:21.328Z,18.53
2019-05-02T04:05:51.762Z,18.63
2019-05-02T04:08:22.747Z,18.60
2019-05-02T04:11:38.382Z,19.57
2019-05-02T04:14:14.877Z,18.63
2019-05-02T04:16:35.538Z,19.37
2019-05-02T04:19:06.686Z,19.83
2019-05-02T04:21:37.678Z,19.77
2019-05-02T04:24:13.395Z,19.30
2019-05-02T04:26:52.620Z,20.77
2019-05-02T04:29:14.109Z,19.50
2019-05-02T04:31:44.894Z,19.13
2019-05-02T04:34:17.846Z,18.10
2019-05-02T04:37:00.151Z,20.50
2019-05-02T04:39:21.616Z,19.90
2019-05-02T04:41:52.701Z,20.73
2019-05-02T04:44:32.265Z,20.43
2019-05-02T04:47:02.669Z,20.53
2019-05-02T04:49:35.787Z,20.60
2019-05-02T04:52:07.864Z,20.70
2019-05-02T04:54:38.865Z,22.03
2019-05-02T04:57:10.258Z,21.23
2019-05-02T04:59:41.766Z,21.23
2019-05-02T05:02:13.128Z,21.23
2019-05-02T05:04:48.652Z,20.43
2019-05-02T05:07:17.738Z,20.50
2019-05-02T05:09:57.144Z,20.50
2019-05-02T05:12:21.778Z,20.23
2019-05-02T05:14:53.291Z,21.20
2019-05-02T05:17:32.453Z,21.30
2019-05-02T05:20:00.154Z,22.97
2019-05-02T05:22:36.581Z,19.70
2019-05-02T05:25:12.416Z,21.17
2019-05-02T05:27:42.223Z,20.87
2019-05-02T05:30:15.677Z,20.93
2019-05-02T05:32:47.788Z,22.07
2019-05-02T05:35:18.339Z,20.57
2019-05-02T05:37:53.142Z,22.17
2019-05-02T05:40:22.565Z,20.10
2019-05-02T05:42:57.326Z,22.10
2019-05-02T05:45:28.203Z,19.63
2019-05-02T05:48:01.091Z,22.00
2019-05-02T05:50:32.148Z,21.43
2019-05-02T05:53:05.192Z,23.47
2019-05-02T05:55:38.213Z,21.70
2019-05-02T05:58:15.242Z,20.53
2019-05-02T06:00:45.923Z,21.43
2019-05-02T06:03:14.852Z,22.17
2019-05-02T06:05:47.640Z,22.53
2019-05-02T06:08:20.007Z,22.57
2019-05-02T06:10:51.727Z,22.67
2019-05-02T06:13:22.499Z,21.63
2019-05-02T06:16:02.040Z,22.47
2019-05-02T06:18:28.437Z,24.17
2019-05-02T06:21:03.172Z,22.13
2019-05-02T06:23:36.268Z,22.13
2019-05-02T06:26:13.069Z,21.43
2019-05-02T06:28:41.583Z,21.50
2019-05-02T06:31:13.308Z,22.63
2019-05-02T06:33:44.614Z,21.83
2019-05-02T06:36:15.502Z,21.20
2019-05-02T06:38:46.745Z,20.00
2019-05-02T06:41:20.983Z,21.03
2019-05-02T06:43:50.874Z,21.83
2019-05-02T06:46:27.824Z,22.93
2019-05-02T06:48:55.313Z,21.60
2019-05-02T06:51:26.111Z,22.50
2019-05-02T06:53:57.031Z,20.43
2019-05-02T06:56:28.432Z,21.47
2019-05-02T06:59:01.086Z,22.43
2019-05-02T07:01:32.843Z,22.47
2019-05-02T07:04:04.561Z,21.70
2019-05-02T07:06:56.057Z,22.13
2019-05-02T07:09:09.729Z,22.67
2019-05-02T07:11:41.126Z,22.37
2019-05-02T07:14:13.796Z,25.20
2019-05-02T07:16:54.632Z,23.70
2019-05-02T07:19:29.421Z,22.97
2019-05-02T07:22:04.213Z,23.47
2019-05-02T07:24:33.587Z,22.03
2019-05-02T07:27:04.888Z,22.47
2019-05-02T07:29:36.013Z,23.00
2019-05-02T07:32:07.521Z,24.40
2019-05-02T07:34:38.513Z,23.63
2019-05-02T07:37:12.607Z,23.70
2019-05-02T07:39:42.786Z,22.37
2019-05-02T07:42:13.910Z,24.77
2019-05-02T07:44:47.064Z,23.13
2019-05-02T07:47:18.601Z,23.67
2019-05-02T07:49:49.869Z,24.97
2019-05-02T07:52:20.779Z,23.93
2019-05-02T07:54:56.181Z,22.57
2019-05-02T07:57:25.132Z,25.00
2019-05-02T08:00:00.669Z,25.07
2019-05-02T08:02:32.119Z,25.17
2019-05-02T08:05:03.708Z,24.53
2019-05-02T08:07:34.936Z,26.43
2019-05-02T08:10:07.080Z,23.60
2019-05-02T08:12:38.021Z,27.00
2019-05-02T08:15:13.118Z,26.77
2019-05-02T08:17:42.211Z,25.00
2019-05-02T08:20:19.031Z,25.73
2019-05-02T08:22:49.004Z,25.63
2019-05-02T08:25:20.601Z,25.23
2019-05-02T08:27:59.506Z,25.80
2019-05-02T08:30:35.284Z,25.37
2019-05-02T08:33:07.156Z,25.93
2019-05-02T08:35:38.518Z,25.73
2019-05-02T08:38:12.512Z,26.33
2019-05-02T08:40:47.598Z,26.83
2019-05-02T08:43:15.002Z,27.20
2019-05-02T08:45:46.792Z,25.60
2019-05-02T08:48:18.418Z,25.50
2019-05-02T08:50:50.106Z,26.30
2019-05-02T08:53:24.456Z,25.87
2019-05-02T08:55:55.563Z,27.50
2019-05-02T08:58:27.009Z,25.53
2019-05-02T09:00:58.344Z,25.47
2019-05-02T09:03:38.936Z,25.13
2019-05-02T09:06:05.997Z,25.17
2019-05-02T09:08:36.343Z,25.40
2019-05-02T09:11:07.822Z,26.93
2019-05-02T09:13:39.227Z,25.40
2019-05-02T09:16:12.078Z,27.03
2019-05-02T09:18:50.674Z,25.73
2019-05-02T09:21:16.313Z,26.07
2019-05-02T09:23:47.681Z,26.23
2019-05-02T09:26:26.352Z,25.50
2019-05-02T09:28:56.239Z,26.03
2019-05-02T09:31:24.887Z,25.40
2019-05-02T09:33:57.153Z,27.33
2019-05-02T09:36:32.166Z,24.80
2019-05-02T09:39:04.106Z,24.63
2019-05-02T09:41:36.370Z,25.70
2019-05-02T09:44:09.102Z,24.43
2019-05-02T09:46:42.914Z,25.00
2019-05-02T09:49:16.545Z,26.47
2019-05-02T09:51:50.460Z,26.33
2019-05-02T09:54:22.822Z,24.73
2019-05-02T09:56:53.567Z,25.33
2019-05-02T09:59:33.112Z,24.27
2019-05-02T10:02:07.035Z,25.57
2019-05-02T10:04:37.973Z,25.63
2019-05-02T10:07:09.443Z,25.67
2019-05-02T10:09:42.433Z,26.07
2019-05-02T10:12:14.323Z,24.90
2019-05-02T10:14:45.656Z,26.03
2019-05-02T10:17:18.520Z,26.57
2019-05-02T10:19:54.945Z,25.93
2019-05-02T10:22:24.963Z,25.50
2019-05-02T10:24:58.662Z,25.43
2019-05-02T10:27:29.598Z,25.80
2019-05-02T10:30:08.393Z,24.30
2019-05-02T10:32:34.529Z,24.23
2019-05-02T10:35:06.137Z,25.30
2019-05-02T10:37:38.335Z,25.50
2019-05-02T10:40:13.444Z,25.13
2019-05-02T10:42:43.095Z,23.97
2019-05-02T10:45:16.675Z,23.50
2019-05-02T10:47:47.552Z,24.87
2019-05-02T10:50:23.681Z,25.30
2019-05-02T10:52:54.798Z,25.23
2019-05-02T10:55:26.613Z,23.23
2019-05-02T10:57:57.913Z,24.33
2019-05-02T11:00:35.763Z,25.90
2019-05-02T11:03:16.246Z,24.23
2019-05-02T11:05:52.809Z,24.13
2019-05-02T11:08:24.546Z,25.83
2019-05-02T11:10:55.574Z,23.77
2019-05-02T11:13:55.021Z,26.53
2019-05-02T11:16:39.429Z,26.23
2019-05-02T11:19:17.647Z,26.80
2019-05-02T11:21:56.538Z,26.80
2019-05-02T11:24:22.517Z,26.90
2019-05-02T11:26:56.760Z,27.37
2019-05-02T11:29:28.121Z,26.73
2019-05-02T11:31:59.098Z,28.87
2019-05-02T11:34:32.799Z,27.47
2019-05-02T11:37:04.243Z,27.23
2019-05-02T11:39:44.034Z,27.80
2019-05-02T11:42:08.633Z,27.90
2019-05-02T11:44:41.751Z,27.87
2019-05-02T11:47:12.688Z,29.17
2019-05-02T11:49:46.763Z,27.40
2019-05-02T11:52:17.420Z,27.33
2019-05-02T11:54:48.909Z,28.17
2019-05-02T11:57:22.815Z,26.83
2019-05-02T11:59:52.824Z,26.63
2019-05-02T12:02:49.189Z,27.33
2019-05-02T12:05:19.482Z,26.50
2019-05-02T12:07:52.225Z,27.17
2019-05-02T12:10:23.379Z,26.67
2019-05-02T12:12:54.769Z,25.97
2019-05-02T12:15:26.809Z,24.47
2019-05-02T12:17:57.794Z,26.17
2019-05-02T12:20:33.955Z,26.07
2019-05-02T12:23:02.150Z,24.33
2019-05-02T12:25:36.740Z,27.07
2019-05-02T12:28:08.567Z,25.90
2019-05-02T12:30:39.430Z,26.80
2019-05-02T12:33:12.292Z,27.33
2019-05-02T12:35:44.261Z,24.83
2019-05-02T12:38:15.450Z,23.40
2019-05-02T12:40:46.742Z,25.57
2019-05-02T12:43:17.616Z,26.80
2019-05-02T12:45:49.252Z,28.47
2019-05-02T12:48:22.023Z,24.63
2019-05-02T12:50:52.996Z,25.43
2019-05-02T12:53:24.218Z,26.47
2019-05-02T12:55:55.489Z,24.77
2019-05-02T12:58:26.292Z,25.10
2019-05-02T13:00:57.239Z,25.97
2019-05-02T13:03:46.142Z,25.67
2019-05-02T13:06:17.390Z,24.50
2019-05-02T13:08:52.706Z,25.53
2019-05-02T13:11:43.918Z,26.27
2019-05-02T13:14:19.472Z,26.20
2019-05-02T13:16:53.540Z,27.37
2019-05-02T13:19:37.209Z,27.17
2019-05-02T13:22:14.789Z,26.97
2019-05-02T13:24:54.107Z,25.53
2019-05-02T13:27:22.829Z,27.30
2019-05-02T13:29:53.792Z,23.93
2019-05-02T13:32:42.704Z,26.53
2019-05-02T13:35:36.633Z,26.27
2019-05-02T13:38:12.862Z,26.97
2019-05-02T13:40:45.193Z,24.63
2019-05-02T13:43:15.877Z,26.03
2019-05-02T13:45:59.705Z,25.87
2019-05-02T13:48:34.678Z,25.70
2019-05-02T13:51:05.994Z,25.73
2019-05-02T13:53:37.987Z,26.67
2019-05-02T13:56:42.696Z,26.93
2019-05-02T13:59:13.009Z,27.47
2019-05-02T14:01:44.382Z,27.03
2019-05-02T14:04:15.796Z,27.27
2019-05-02T14:06:47.274Z,28.70
2019-05-02T14:09:35.842Z,26.03
2019-05-02T14:12:14.704Z,26.37
2019-05-02T14:14:46.318Z,29.00
2019-05-02T14:17:17.424Z,27.23
2019-05-02T14:19:48.706Z,29.23
2019-05-02T14:22:19.352Z,30.67
2019-05-02T14:24:51.891Z,31.83
2019-05-02T14:27:23.438Z,31.50
2019-05-02T14:29:54.615Z,34.70
2019-05-02T14:32:26.726Z,32.37
2019-05-02T14:35:18.615Z,33.27
2019-05-02T14:38:08.566Z,31.93
2019-05-02T14:40:51.954Z,31.20
2019-05-02T14:43:44.549Z,32.30
2019-05-02T14:46:12.953Z,32.80
2019-05-02T14:48:45.452Z,31.63
2019-05-02T14:51:21.346Z,31.60
2019-05-02T14:53:49.439Z,30.73
2019-05-02T14:56:26.247Z,34.33
2019-05-02T14:58:57.015Z,32.77
2019-05-02T15:01:32.157Z,34.00
2019-05-02T15:04:08.137Z,34.00
2019-05-02T15:06:38.374Z,34.60
2019-05-02T15:09:12.070Z,32.37
2019-05-02T15:12:08.229Z,33.70
2019-05-02T15:14:36.168Z,34.30
2019-05-02T15:17:07.725Z,35.67
2019-05-02T15:19:39.555Z,36.33
2019-05-02T15:22:12.323Z,34.57
2019-05-02T15:24:43.294Z,33.23
2019-05-02T15:27:17.796Z,34.20
2019-05-02T15:29:47.017Z,33.47
2019-05-02T15:32:46.317Z,34.73
2019-05-02T15:35:32.379Z,34.57
2019-05-02T15:38:06.831Z,35.07
2019-05-02T15:40:46.997Z,34.47
2019-05-02T15:43:12.618Z,36.60
2019-05-02T15:45:45.434Z,39.03
2019-05-02T15:48:22.791Z,35.20
2019-05-02T15:50:52.464Z,37.47
2019-05-02T15:53:29.929Z,34.83
2019-05-02T15:56:02.085Z,34.73
2019-05-02T15:58:33.478Z,36.10
2019-05-02T16:01:22.474Z,34.93
2019-05-02T16:03:54.644Z,32.90
2019-05-02T16:06:31.581Z,34.27
2019-05-02T16:08:58.541Z,33.83
2019-05-02T16:11:29.534Z,35.30
2019-05-02T16:14:03.230Z,34.20
2019-05-02T16:16:36.662Z,34.97
2019-05-02T16:19:14.943Z,34.07
2019-05-02T16:21:49.790Z,31.53
2019-05-02T16:24:22.966Z,30.83
2019-05-02T16:26:57.228Z,32.50
2019-05-02T16:29:29.636Z,29.17
2019-05-02T16:32:23.602Z,30.30
2019-05-02T16:34:56.448Z,29.20
2019-05-02T16:37:27.635Z,28.27
2019-05-02T16:39:58.540Z,30.47
2019-05-02T16:42:29.458Z,32.07
2019-05-02T16:45:02.652Z,33.47
2019-05-02T16:47:34.409Z,32.73
2019-05-02T16:50:06.859Z,34.27
2019-05-02T16:52:42.578Z,34.57
2019-05-02T16:55:13.688Z,34.90
2019-05-02T16:57:43.198Z,36.83
2019-05-02T17:00:20.003Z,37.03
2019-05-02T17:02:51.306Z,32.43
2019-05-02T17:05:22.854Z,33.53
2019-05-02T17:08:18.915Z,31.37
2019-05-02T17:10:56.854Z,33.37
2019-05-02T17:13:32.774Z,30.87
2019-05-02T17:16:06.895Z,29.90
2019-05-02T17:18:32.808Z,30.40
2019-05-02T17:21:04.007Z,31.37
2019-05-02T17:23:42.825Z,30.90
2019-05-02T17:26:12.255Z,31.53
2019-05-02T17:28:47.268Z,30.07
2019-05-02T17:31:20.441Z,29.60
2019-05-02T17:33:52.418Z,28.43
2019-05-02T17:36:28.653Z,29.43
2019-05-02T17:38:59.323Z,31.30
2019-05-02T17:41:31.803Z,30.07
2019-05-02T17:44:03.990Z,29.10
2019-05-02T17:46:36.675Z,29.33
2019-05-02T17:49:08.130Z,27.70
2019-05-02T17:52:05.591Z,28.60
2019-05-02T17:54:33.141Z,29.20
2019-05-02T17:57:07.331Z,28.83
2019-05-02T17:59:38.267Z,27.63
2019-05-02T18:02:14.234Z,28.27
2019-05-02T18:04:42.199Z,30.33
2019-05-02T18:07:14.819Z,28.77
2019-05-02T18:09:45.743Z,29.03
2019-05-02T18:12:16.919Z,28.93
2019-05-02T18:14:53.129Z,28.63
2019-05-02T18:17:22.011Z,30.17
2019-05-02T18:19:56.737Z,28.97
2019-05-02T18:22:26.329Z,30.17
2019-05-02T18:24:57.624Z,30.50
2019-05-02T18:27:31.186Z,31.07
2019-05-02T18:30:02.307Z,31.43
2019-05-02T18:32:33.426Z,31.37
2019-05-02T18:35:06.245Z,32.93
2019-05-02T18:37:41.777Z,31.57
2019-05-02T18:40:11.753Z,30.77
2019-05-02T18:42:42.416Z,30.23
2019-05-02T18:45:18.519Z,30.73
2019-05-02T18:47:48.872Z,29.27
2019-05-02T18:50:46.169Z,31.23
2019-05-02T18:53:13.747Z,30.63
2019-05-02T18:55:44.315Z,14.70
2019-05-02T18:58:14.633Z,11.70
2019-05-02T19:00:45.012Z,8.73
2019-05-02T19:03:17.314Z,7.93
2019-05-02T19:05:51.490Z,8.27
2019-05-02T19:08:29.115Z,8.63
2019-05-02T19:11:05.373Z,7.27
2019-05-02T19:13:26.131Z,6.67
2019-05-02T19:15:56.924Z,6.40
2019-05-02T19:18:27.613Z,7.23
2019-05-02T19:21:03.038Z,6.77
2019-05-02T19:23:35.860Z,6.60
2019-05-02T19:26:12.385Z,7.10
2019-05-02T19:28:54.310Z,6.57
2019-05-02T19:31:28.376Z,6.50
2019-05-02T19:33:58.818Z,6.57
2019-05-02T19:36:29.697Z,6.73
2019-05-02T19:39:07.870Z,7.63
2019-05-02T19:41:32.187Z,7.77
2019-05-02T19:44:02.739Z,8.07
2019-05-02T19:46:38.595Z,7.60
2019-05-02T19:49:06.888Z,7.47
2019-05-02T19:51:37.763Z,6.97
2019-05-02T19:54:08.558Z,7.40
2019-05-02T19:56:43.936Z,7.57
2019-05-02T19:59:12.022Z,7.23
2019-05-02T20:01:43.103Z,7.83
2019-05-02T20:04:13.807Z,7.30
2019-05-02T20:06:44.542Z,8.37
2019-05-02T20:09:15.009Z,8.03
2019-05-02T20:11:45.487Z,8.00
2019-05-02T20:14:16.592Z,8.03
2019-05-02T20:16:52.883Z,8.90
2019-05-02T20:19:26.957Z,9.03
2019-05-02T20:22:04.817Z,9.30
2019-05-02T20:24:55.447Z,9.50
2019-05-02T20:27:24.187Z,8.97
2019-05-02T20:29:54.882Z,7.53
2019-05-02T20:32:26.466Z,7.10
2019-05-02T20:34:57.382Z,6.23
2019-05-02T20:37:28.518Z,5.63
2019-05-02T20:39:59.358Z,4.90
2019-05-02T20:42:32.101Z,4.20
2019-05-02T20:45:02.999Z,4.53
2019-05-02T20:47:34.020Z,3.67
2019-05-02T20:50:05.963Z,4.10
2019-05-02T20:52:38.061Z,3.93
2019-05-02T20:55:08.924Z,4.10
2019-05-02T20:57:39.888Z,3.60
2019-05-02T21:00:19.662Z,3.83
2019-05-02T21:02:51.882Z,3.50
2019-05-02T21:05:27.106Z,3.00
2019-05-02T21:08:35.361Z,3.10
2019-05-02T21:11:06.434Z,3.17
2019-05-02T21:13:38.944Z,3.13
2019-05-02T21:16:10.034Z,3.13
2019-05-02T21:18:42.312Z,2.80
2019-05-02T21:21:13.487Z,3.30
2019-05-02T21:23:47.812Z,3.13
2019-05-02T21:26:18.656Z,2.90
2019-05-02T21:28:49.816Z,2.80
2019-05-02T21:31:22.388Z,3.20
2019-05-02T21:33:52.947Z,3.30
2019-05-02T21:36:23.679Z,3.23
2019-05-02T21:38:54.326Z,2.97
2019-05-02T21:41:25.357Z,3.37
2019-05-02T21:43:57.689Z,3.33
2019-05-02T21:46:29.274Z,3.07
2019-05-02T21:49:00.448Z,3.10
2019-05-02T21:51:38.607Z,3.03
2019-05-02T21:54:19.617Z,4.00
2019-05-02T21:56:54.661Z,3.33
2019-05-02T21:59:25.515Z,3.50
2019-05-02T22:01:57.945Z,3.10
2019-05-02T22:04:29.191Z,3.00
2019-05-02T22:07:02.003Z,2.60
2019-05-02T22:09:33.005Z,2.90
2019-05-02T22:12:04.443Z,3.10
2019-05-02T22:14:35.095Z,3.00
2019-05-02T22:17:06.318Z,3.00
2019-05-02T22:19:41.600Z,2.57
2019-05-02T22:22:12.297Z,2.80
2019-05-02T22:24:43.010Z,3.10
2019-05-02T22:27:13.927Z,2.80
2019-05-02T22:29:45.143Z,2.90
2019-05-02T22:32:17.495Z,2.93
2019-05-02T22:34:48.646Z,3.30
2019-05-02T22:37:22.068Z,3.97
2019-05-02T22:39:57.358Z,3.60
2019-05-02T22:42:27.943Z,3.33
2019-05-02T22:44:58.928Z,3.33
2019-05-02T22:47:29.524Z,3.70
2019-05-02T22:50:00.156Z,3.10
2019-05-02T22:52:32.560Z,3.10
2019-05-02T22:55:03.381Z,3.50
2019-05-02T22:57:33.941Z,3.20
2019-05-02T23:00:06.177Z,3.30
2019-05-02T23:02:36.787Z,3.50
2019-05-02T23:05:07.772Z,3.80
2019-05-02T23:07:38.168Z,3.30
2019-05-02T23:10:09.432Z,3.67
2019-05-02T23:12:42.273Z,3.50
2019-05-02T23:15:12.885Z,3.70
2019-05-02T23:17:43.557Z,3.53
2019-05-02T23:20:14.503Z,3.30
2019-05-02T23:22:45.241Z,3.23
2019-05-02T23:25:42.570Z,3.33
2019-05-02T23:28:26.195Z,3.40
2019-05-02T23:30:57.487Z,4.07
2019-05-02T23:33:47.476Z,3.70
2019-05-02T23:36:18.023Z,3.70
2019-05-02T23:38:49.451Z,3.47
2019-05-02T23:41:23.174Z,3.30
2019-05-02T23:43:53.892Z,3.50
2019-05-02T23:46:24.990Z,4.00
2019-05-02T23:48:55.688Z,3.60
2019-05-02T23:51:26.578Z,2.87
2019-05-02T23:53:57.366Z,4.20
2019-05-02T23:56:32.271Z,3.57
2019-05-02T23:59:03.235Z,3.20
